Time;durP1;ratioP1;P1;durP2;ratioP2;P2;SDS_P1;SDS_P2;PMS_P1;PMS_P2;Temp;Humidity;BMP_temperature;BMP_pressure;BME280_temperature;BME280_humidity;BME280_pressure;Samples;Min_cycle;Max_cycle;Signal;HPM_P1;HPM_P2
2021/11/29 00:01:23;;;;;;;5.15;1.30;;;;;;;1.56;100.00;100595.69;5028430;28;20033;-76
2021/11/29 00:03:49;;;;;;;4.60;1.65;;;;;;;1.57;100.00;100593.16;5031174;28;20535;-76
2021/11/29 00:06:17;;;;;;;6.25;1.50;;;;;;;1.61;100.00;100596.81;5029363;28;20025;-75
2021/11/29 00:08:42;;;;;;;4.25;1.83;;;;;;;1.64;100.00;100594.34;5028730;28;21656;-75
2021/11/29 00:11:12;;;;;;;3.83;1.63;;;;;;;1.68;100.00;100596.28;5030158;28;20095;-76
2021/11/29 00:13:38;;;;;;;2.35;1.50;;;;;;;1.68;100.00;100594.59;5028004;28;20025;-75
2021/11/29 00:16:04;;;;;;;5.32;1.65;;;;;;;1.62;100.00;100593.41;5030677;28;20025;-76
2021/11/29 00:18:30;;;;;;;4.30;1.60;;;;;;;1.60;100.00;100598.53;5028557;28;20033;-76
2021/11/29 00:20:56;;;;;;;3.22;1.70;;;;;;;1.50;100.00;100607.53;5029237;28;20489;-76
2021/11/29 00:23:21;;;;;;;5.57;1.52;;;;;;;1.45;100.00;100603.84;5031395;28;20044;-76
2021/11/29 00:25:47;;;;;;;5.57;2.30;;;;;;;1.40;100.00;100607.00;5029349;28;20411;-75
2021/11/29 00:28:14;;;;;;;5.15;2.28;;;;;;;1.33;100.00;100596.34;5032012;28;20029;-76
2021/11/29 00:30:40;;;;;;;3.75;2.10;;;;;;;1.28;100.00;100590.03;5030230;28;20059;-75
2021/11/29 00:33:07;;;;;;;7.50;2.50;;;;;;;1.24;100.00;100590.69;5029120;28;20037;-75
2021/11/29 00:35:32;;;;;;;7.65;2.95;;;;;;;1.22;100.00;100600.09;5028691;28;20026;-76
2021/11/29 00:37:58;;;;;;;7.28;2.72;;;;;;;1.21;100.00;100603.50;5028832;28;20029;-76
2021/11/29 00:40:24;;;;;;;6.55;3.10;;;;;;;1.25;100.00;100605.44;5029854;28;20108;-75
2021/11/29 00:42:50;;;;;;;6.25;3.17;;;;;;;1.23;100.00;100620.00;5030625;28;20033;-76
2021/11/29 00:45:15;;;;;;;6.28;2.78;;;;;;;1.22;100.00;100620.84;5027462;28;20486;-76
2021/11/29 00:47:41;;;;;;;6.35;3.13;;;;;;;1.24;100.00;100624.38;5028317;28;20117;-76
2021/11/29 00:50:08;;;;;;;5.40;3.00;;;;;;;1.26;100.00;100622.78;5029565;28;20029;-76
2021/11/29 00:52:34;;;;;;;3.53;2.42;;;;;;;1.28;100.00;100626.31;5031702;28;20052;-77
2021/11/29 00:55:00;;;;;;;5.82;3.15;;;;;;;1.29;100.00;100630.69;5028599;28;20104;-76
2021/11/29 00:57:25;;;;;;;4.53;3.08;;;;;;;1.31;100.00;100642.03;5029629;28;20118;-76
2021/11/29 00:59:51;;;;;;;8.10;2.97;;;;;;;1.35;100.00;100643.94;5026058;28;20033;-76
2021/11/29 01:02:17;;;;;;;6.20;3.20;;;;;;;1.43;100.00;100661.63;5030574;28;20040;-77
2021/11/29 01:04:43;;;;;;;5.43;3.85;;;;;;;1.46;100.00;100679.91;5031200;28;20087;-76
2021/11/29 01:07:09;;;;;;;9.23;3.95;;;;;;;1.44;100.00;100689.31;5029402;28;20083;-75
2021/11/29 01:09:35;;;;;;;4.60;4.00;;;;;;;1.41;100.00;100668.41;5039291;28;20091;-77
2021/11/29 01:12:02;;;;;;;5.25;4.00;;;;;;;1.31;100.00;100674.84;5032682;28;20397;-76
2021/11/29 01:14:27;;;;;;;6.60;4.13;;;;;;;1.24;100.00;100681.41;5033028;28;20033;-76
2021/11/29 01:16:53;;;;;;;9.00;4.65;;;;;;;1.19;100.00;100677.69;5034657;28;20115;-77
2021/11/29 01:19:18;;;;;;;8.30;4.47;;;;;;;1.17;100.00;100668.97;5031321;28;20048;-77
2021/11/29 01:21:44;;;;;;;8.00;5.20;;;;;;;1.13;100.00;100652.34;5032643;28;20029;-75
2021/11/29 01:24:09;;;;;;;10.13;5.78;;;;;;;1.10;100.00;100651.28;5032638;28;20053;-77
2021/11/29 01:26:35;;;;;;;12.80;5.18;;;;;;;1.08;100.00;100647.75;5032332;28;20689;-76
2021/11/29 01:29:00;;;;;;;9.40;5.85;;;;;;;1.04;100.00;100645.81;5035730;28;20107;-77
2021/11/29 01:31:26;;;;;;;11.43;5.82;;;;;;;1.00;100.00;100640.47;5031015;28;20030;-76
2021/11/29 01:33:52;;;;;;;15.23;7.45;;;;;;;0.96;100.00;100640.22;5031534;28;20032;-77
2021/11/29 01:36:17;;;;;;;13.10;7.05;;;;;;;0.94;100.00;100653.09;5031684;28;20037;-76
2021/11/29 01:38:43;;;;;;;13.18;7.68;;;;;;;0.93;100.00;100659.09;5031586;28;20405;-76
2021/11/29 01:41:10;;;;;;;17.80;9.20;;;;;;;0.95;100.00;100683.38;5031978;28;20033;-76
2021/11/29 01:43:36;;;;;;;15.98;8.90;;;;;;;0.97;100.00;100699.88;5032177;28;20488;-76
2021/11/29 01:46:02;;;;;;;15.77;9.05;;;;;;;0.98;100.00;100704.25;5031241;28;20044;-76
2021/11/29 01:48:28;;;;;;;12.73;8.80;;;;;;;0.94;100.00;100706.63;5028253;28;20465;-77
2021/11/29 01:50:55;;;;;;;12.38;8.32;;;;;;;0.88;100.00;100701.97;5032793;28;20045;-78
2021/11/29 01:53:22;;;;;;;13.93;8.73;;;;;;;0.85;100.00;100686.28;5032273;28;20068;-78
2021/11/29 01:55:51;;;;;;;12.80;8.32;;;;;;;0.81;100.00;100707.66;5034724;28;20033;-78
2021/11/29 01:58:17;;;;;;;17.83;9.15;;;;;;;0.80;100.00;100692.91;5031942;28;20108;-79
2021/11/29 02:00:48;;;;;;;21.88;11.10;;;;;;;0.80;100.00;100691.22;5034649;28;20493;-78
2021/11/29 02:03:14;;;;;;;21.38;9.43;;;;;;;0.79;100.00;100670.44;5034081;28;20029;-77
2021/11/29 02:05:41;;;;;;;16.50;9.43;;;;;;;0.81;100.00;100669.72;5034568;28;20033;-78
2021/11/29 02:08:07;;;;;;;20.63;9.10;;;;;;;0.83;100.00;100673.25;5016679;28;20029;-77
2021/11/29 02:10:34;;;;;;;17.50;9.32;;;;;;;0.84;100.00;100661.19;5031135;28;20029;-77
2021/11/29 02:13:00;;;;;;;18.25;10.98;;;;;;;0.84;100.00;100654.31;5032849;28;20025;-77
2021/11/29 02:15:25;;;;;;;13.40;9.55;;;;;;;0.82;100.00;100649.88;5032880;28;20369;-77
2021/11/29 02:17:52;;;;;;;13.23;9.88;;;;;;;0.83;100.00;100649.94;5033626;28;20033;-77
2021/11/29 02:20:19;;;;;;;15.40;9.65;;;;;;;0.82;100.00;100652.47;5031046;28;20033;-77
2021/11/29 02:22:46;;;;;;;17.58;10.75;;;;;;;0.82;100.00;100649.88;5029766;28;20044;-77
2021/11/29 02:25:15;;;;;;;15.70;10.90;;;;;;;0.82;100.00;100647.28;5030475;28;20041;-76
2021/11/29 02:27:43;;;;;;;16.15;11.13;;;;;;;0.81;100.00;100651.59;5031444;28;20056;-76
2021/11/29 02:30:11;;;;;;;15.98;10.63;;;;;;;0.79;100.00;100649.72;5032713;28;20021;-77
2021/11/29 02:32:36;;;;;;;17.73;10.27;;;;;;;0.80;100.00;100651.47;5033295;28;20105;-76
2021/11/29 02:35:02;;;;;;;19.45;12.20;;;;;;;0.77;100.00;100646.13;5029678;28;20033;-78
2021/11/29 02:37:27;;;;;;;18.00;12.10;;;;;;;0.74;100.00;100645.97;5032905;28;20037;-77
2021/11/29 02:39:53;;;;;;;16.33;11.45;;;;;;;0.73;100.00;100639.91;5033670;28;20420;-78
2021/11/29 02:42:18;;;;;;;17.17;11.20;;;;;;;0.73;100.00;100641.59;5031354;28;20068;-77
2021/11/29 02:44:44;;;;;;;21.25;12.57;;;;;;;0.79;100.00;100644.53;5033225;28;20030;-76
2021/11/29 02:47:10;;;;;;;20.27;13.15;;;;;;;0.81;100.00;100637.72;5032522;28;20029;-76
2021/11/29 02:49:41;;;;;;;21.40;12.90;;;;;;;0.87;100.00;100629.38;5027229;28;20095;-77
2021/11/29 02:52:11;;;;;;;14.63;11.35;;;;;;;0.85;100.00;100634.47;5033537;28;20068;-76
2021/11/29 02:54:43;;;;;;;20.83;12.27;;;;;;;0.87;100.00;100637.16;5031150;28;20044;-77
2021/11/29 02:57:12;;;;;;;19.63;12.18;;;;;;;0.87;100.00;100635.47;5017163;28;20039;-77
2021/11/29 02:59:39;;;;;;;16.92;11.45;;;;;;;0.83;100.00;100644.75;5029868;28;20086;-77
2021/11/29 03:02:13;;;;;;;17.95;13.02;;;;;;;0.89;100.00;100645.91;5029260;28;20021;-77
2021/11/29 03:04:39;;;;;;;;;;;;;;;0.88;100.00;100644.13;5030302;28;20025;-77
2021/11/29 03:07:05;;;;;;;17.38;12.85;;;;;;;0.82;100.00;100657.63;5026049;28;19923;-76
2021/11/29 03:09:32;;;;;;;18.90;13.32;;;;;;;0.83;100.00;100672.38;5033232;28;20029;-77
2021/11/29 03:11:58;;;;;;;23.48;14.43;;;;;;;0.82;100.00;100675.78;5030141;28;20068;-77
2021/11/29 03:14:24;;;;;;;18.98;13.05;;;;;;;0.82;100.00;100666.28;5032448;28;20053;-78
2021/11/29 03:16:53;;;;;;;22.48;14.95;;;;;;;0.82;100.00;100675.78;5032403;28;20021;-77
2021/11/29 03:19:18;;;;;;;25.85;14.50;;;;;;;0.79;100.00;100686.84;5029803;28;20549;-77
2021/11/29 03:21:44;;;;;;;25.25;15.05;;;;;;;0.83;100.00;100695.69;5030349;28;20124;-76
2021/11/29 03:24:10;;;;;;;22.05;13.75;;;;;;;0.83;100.00;100703.47;5032491;28;20049;-76
2021/11/29 03:26:37;;;;;;;22.13;13.13;;;;;;;0.90;100.00;100699.50;5032102;28;20030;-77
2021/11/29 03:29:06;;;;;;;23.05;13.40;;;;;;;0.96;100.00;100699.81;5029096;28;20036;-76
2021/11/29 03:31:33;;;;;;;25.10;13.35;;;;;;;1.02;100.00;100707.91;5033047;28;20397;-77
2021/11/29 03:34:03;;;;;;;16.50;8.63;;;;;;;1.10;100.00;100703.13;5031486;28;20029;-78
2021/11/29 03:36:31;;;;;;;13.75;8.90;;;;;;;1.15;100.00;100696.47;5030805;28;20033;-76
2021/11/29 03:38:57;;;;;;;24.75;9.20;;;;;;;1.18;100.00;100696.63;5031662;28;20427;-77
2021/11/29 03:41:24;;;;;;;12.48;7.60;;;;;;;1.20;100.00;100692.44;5030440;28;20025;-76
2021/11/29 03:43:49;;;;;;;13.57;6.00;;;;;;;1.24;100.00;100686.59;5032496;28;20025;-76
2021/11/29 03:46:15;;;;;;;6.03;2.72;;;;;;;1.29;100.00;100684.22;5033751;28;20422;-77
2021/11/29 03:48:41;;;;;;;10.63;1.25;;;;;;;1.40;100.00;100684.78;5035462;28;20116;-76
2021/11/29 03:51:06;;;;;;;4.15;0.80;;;;;;;1.50;100.00;100676.66;5029750;28;20398;-75
2021/11/29 03:53:32;;;;;;;7.88;0.93;;;;;;;1.55;100.00;100672.59;5029402;28;20112;-75
2021/11/29 03:55:58;;;;;;;4.72;0.82;;;;;;;1.57;100.00;100676.16;5030930;28;21925;-75
2021/11/29 03:58:23;;;;;;;10.40;0.88;;;;;;;1.57;100.00;100673.56;5030377;28;20132;-75
2021/11/29 04:00:49;;;;;;;6.22;1.10;;;;;;;1.53;100.00;100676.81;5030623;28;20039;-75
2021/11/29 04:03:14;;;;;;;5.68;0.70;;;;;;;1.44;100.00;100668.56;5027702;28;20099;-75
2021/11/29 04:05:41;;;;;;;8.30;0.80;;;;;;;1.34;100.00;100675.00;5029094;28;20030;-75
2021/11/29 04:08:06;;;;;;;7.32;1.10;;;;;;;1.26;100.00;100674.63;5029544;28;20042;-76
2021/11/29 04:10:33;;;;;;;14.98;2.10;;;;;;;1.21;100.00;100681.25;5029453;28;20017;-75
2021/11/29 04:12:58;;;;;;;7.28;1.30;;;;;;;1.24;100.00;100681.41;5030696;28;20033;-75
2021/11/29 04:15:24;;;;;;;6.85;0.90;;;;;;;1.24;100.00;100690.91;5030550;28;20021;-74
2021/11/29 04:17:49;;;;;;;4.68;1.00;;;;;;;1.28;100.00;100685.06;5035500;28;20029;-75
2021/11/29 04:20:16;;;;;;;7.22;0.90;;;;;;;1.27;100.00;100680.69;5031062;28;20540;-76
2021/11/29 04:22:46;;;;;;;14.55;1.50;;;;;;;1.29;100.00;100690.31;5031843;28;20053;-75
2021/11/29 04:25:16;;;;;;;16.52;1.52;;;;;;;1.37;100.00;100697.59;5029102;28;20049;-75
2021/11/29 04:27:43;;;;;;;6.55;1.77;;;;;;;1.50;100.00;100718.16;5032191;28;20036;-75
2021/11/29 04:30:16;;;;;;;10.38;1.15;;;;;;;1.64;100.00;100711.97;5031320;28;20453;-75
2021/11/29 04:32:45;;;;;;;5.32;0.70;;;;;;;1.79;100.00;100714.44;5032192;28;20392;-76
2021/11/29 04:35:11;;;;;;;6.57;0.85;;;;;;;1.82;100.00;100682.56;5029718;28;20107;-75
2021/11/29 04:37:37;;;;;;;3.78;0.63;;;;;;;1.88;100.00;100687.16;5029812;28;20025;-76
2021/11/29 04:40:04;;;;;;;5.50;0.63;;;;;;;1.85;100.00;100677.53;5030486;28;20051;-76
2021/11/29 04:42:30;;;;;;;4.00;0.57;;;;;;;1.80;100.00;100679.88;5031986;28;20498;-75
2021/11/29 04:44:56;;;;;;;3.03;0.60;;;;;;;1.74;100.00;100681.31;5031780;28;20036;-76
2021/11/29 04:47:22;;;;;;;2.05;1.20;;;;;;;1.71;100.00;100688.91;5032714;28;20044;-76
2021/11/29 04:49:50;;;;;;;3.60;1.00;;;;;;;1.69;100.00;100707.00;5035105;28;20030;-76
2021/11/29 04:52:16;;;;;;;13.45;2.13;;;;;;;1.89;100.00;100705.41;5035233;28;20160;-76
2021/11/29 04:54:42;;;;;;;6.70;1.02;;;;;;;2.01;100.00;100705.13;5034151;28;20029;-76
2021/11/29 04:57:08;;;;;;;11.65;1.77;;;;;;;2.06;100.00;100723.50;5035929;28;20567;-75
2021/11/29 04:59:33;;;;;;;10.15;1.20;;;;;;;2.11;100.00;100716.84;5033827;28;20502;-76
2021/11/29 05:02:01;;;;;;;5.43;0.95;;;;;;;2.11;100.00;100715.13;5033811;28;20118;-75
2021/11/29 05:04:27;;;;;;;8.23;0.90;;;;;;;2.04;100.00;100712.19;5034372;28;20027;-76
2021/11/29 05:06:52;;;;;;;7.65;2.00;;;;;;;1.95;100.00;100713.47;5032981;28;20036;-76
2021/11/29 05:09:18;;;;;;;4.85;0.85;;;;;;;1.87;100.00;100712.22;5033307;28;20029;-76
2021/11/29 05:11:43;;;;;;;8.40;1.40;;;;;;;1.79;100.00;100714.44;5036434;28;20049;-76
2021/11/29 05:14:09;;;;;;;8.18;1.10;;;;;;;1.78;100.00;100707.47;5034146;28;20037;-76
2021/11/29 05:16:35;;;;;;;10.73;1.75;;;;;;;1.71;100.00;100704.47;5030360;28;20022;-76
2021/11/29 05:19:02;;;;;;;8.55;2.00;;;;;;;1.60;100.00;100702.25;5036200;28;20037;-76
2021/11/29 05:21:28;;;;;;;14.23;1.38;;;;;;;1.50;100.00;100710.38;5036409;28;20029;-75
2021/11/29 05:23:53;;;;;;;8.82;1.50;;;;;;;1.41;100.00;100709.91;5034237;28;20049;-76
2021/11/29 05:26:21;;;;;;;5.85;0.82;;;;;;;1.35;100.00;100724.31;5035057;28;20508;-76
2021/11/29 05:28:48;;;;;;;8.05;1.80;;;;;;;1.34;100.00;100740.72;5030769;28;20473;-76
2021/11/29 05:31:14;;;;;;;18.88;2.38;;;;;;;1.39;100.00;100737.47;5031594;28;20033;-77
2021/11/29 05:33:40;;;;;;;9.55;1.73;;;;;;;1.52;100.00;100752.84;5032374;28;20021;-76
2021/11/29 05:36:06;;;;;;;12.68;1.48;;;;;;;1.75;100.00;100760.88;5036916;28;20026;-76
2021/11/29 05:38:31;;;;;;;4.60;0.75;;;;;;;1.93;100.00;100761.81;5034891;28;20025;-75
2021/11/29 05:41:01;;;;;;;6.65;0.80;;;;;;;2.08;100.00;100768.59;5031473;28;20547;-75
2021/11/29 05:43:27;;;;;;;6.70;0.82;;;;;;;2.14;100.00;100763.69;5032086;28;20121;-76
2021/11/29 05:45:53;;;;;;;6.88;1.17;;;;;;;2.21;100.00;100760.56;5030364;28;20033;-75
2021/11/29 05:48:18;;;;;;;3.22;0.55;;;;;;;2.27;100.00;100776.47;5024477;28;20367;-75
2021/11/29 05:50:43;;;;;;;4.78;0.60;;;;;;;2.34;100.00;100778.53;5027493;28;20041;-77
2021/11/29 05:53:09;;;;;;;2.55;0.50;;;;;;;2.43;100.00;100756.44;5030821;28;20034;-74
2021/11/29 05:55:35;;;;;;;2.58;0.70;;;;;;;2.42;100.00;100752.06;5028059;28;20477;-75
2021/11/29 05:58:01;;;;;;;4.10;0.80;;;;;;;2.41;100.00;100752.88;5031314;28;20478;-76
2021/11/29 06:00:26;;;;;;;1.08;0.60;;;;;;;2.34;100.00;100751.69;5010589;28;20044;-76
2021/11/29 06:02:52;;;;;;;4.97;0.90;;;;;;;2.24;100.00;100752.97;5031005;28;20037;-76
2021/11/29 06:05:17;;;;;;;6.15;1.10;;;;;;;2.16;100.00;100760.38;5034491;28;20206;-77
2021/11/29 06:07:43;;;;;;;2.33;0.93;;;;;;;2.04;100.00;100756.28;5024660;28;20482;-76
2021/11/29 06:10:11;;;;;;;4.78;0.70;;;;;;;1.91;100.00;100755.66;5029844;28;20033;-76
2021/11/29 06:12:37;;;;;;;4.35;0.70;;;;;;;1.81;100.00;100763.81;5028974;28;20116;-76
2021/11/29 06:15:05;;;;;;;3.38;0.90;;;;;;;1.71;100.00;100767.66;5030574;28;20044;-76
2021/11/29 06:17:31;;;;;;;5.72;0.85;;;;;;;1.66;100.00;100769.09;5033703;28;20618;-77
2021/11/29 06:19:57;;;;;;;3.38;0.63;;;;;;;1.66;100.00;100779.47;5030603;28;20029;-76
2021/11/29 06:22:22;;;;;;;10.80;1.10;;;;;;;1.65;100.00;100783.75;5027040;28;20033;-77
2021/11/29 06:24:48;;;;;;;4.05;1.75;;;;;;;1.65;100.00;100804.50;5030719;28;20120;-77
2021/11/29 06:27:14;;;;;;;1.70;0.88;;;;;;;1.64;100.00;100810.53;5029480;28;20041;-77
2021/11/29 06:29:39;;;;;;;4.40;1.08;;;;;;;1.73;100.00;100814.41;5029827;28;20032;-77
2021/11/29 06:32:06;;;;;;;8.35;1.55;;;;;;;1.79;100.00;100801.75;5027370;28;20160;-78
2021/11/29 06:34:31;;;;;;;3.92;1.05;;;;;;;1.86;100.00;100809.03;5033964;28;20304;-78
2021/11/29 06:36:59;;;;;;;5.18;1.13;;;;;;;1.94;100.00;100792.16;5029812;28;20032;-78
2021/11/29 06:39:28;;;;;;;5.00;1.00;;;;;;;1.95;100.00;100796.50;5031808;28;20064;-76
2021/11/29 06:41:54;;;;;;;10.40;1.40;;;;;;;1.99;100.00;100797.56;5030648;28;20033;-77
2021/11/29 06:44:20;;;;;;;7.63;1.02;;;;;;;2.04;100.00;100795.22;5028861;28;20029;-76
2021/11/29 06:46:47;;;;;;;13.52;1.15;;;;;;;2.14;100.00;100815.63;5028149;28;20032;-75
2021/11/29 06:49:13;;;;;;;12.48;1.70;;;;;;;2.28;100.00;100809.41;5028934;28;20041;-75
2021/11/29 06:51:39;;;;;;;12.55;2.10;;;;;;;2.43;100.00;100800.56;5029073;28;20025;-75
2021/11/29 06:54:05;;;;;;;11.60;1.80;;;;;;;2.55;100.00;100808.09;5032269;28;20040;-75
2021/11/29 06:56:31;;;;;;;12.32;1.42;;;;;;;2.59;100.00;100810.91;5024443;28;20474;-76
2021/11/29 06:58:56;;;;;;;10.63;2.05;;;;;;;2.61;100.00;100811.88;5023950;28;20039;-76
2021/11/29 07:01:22;;;;;;;5.95;1.23;;;;;;;2.60;100.00;100812.69;5031932;28;20072;-76
2021/11/29 07:03:49;;;;;;;13.40;1.85;;;;;;;2.57;100.00;100814.25;5025327;28;20473;-76
2021/11/29 07:06:17;;;;;;;12.27;1.15;;;;;;;2.54;100.00;100815.00;5031870;28;20033;-79
2021/11/29 07:08:42;;;;;;;9.25;1.60;;;;;;;2.49;100.00;100812.16;5025875;28;20041;-78
2021/11/29 07:11:08;;;;;;;7.88;1.33;;;;;;;2.48;100.00;100823.38;5026940;28;20037;-78
2021/11/29 07:13:34;;;;;;;7.22;1.70;;;;;;;2.46;100.00;100831.91;5029080;28;20140;-77
2021/11/29 07:16:00;;;;;;;9.88;1.55;;;;;;;2.43;100.00;100839.53;5027734;28;20033;-76
2021/11/29 07:18:26;;;;;;;10.63;1.67;;;;;;;2.40;100.00;100839.38;5026092;28;20036;-77
2021/11/29 07:20:51;;;;;;;7.60;1.42;;;;;;;2.39;100.00;100840.19;5031475;28;20029;-77
2021/11/29 07:23:17;;;;;;;6.35;1.77;;;;;;;2.37;100.00;100845.31;5024693;28;20108;-78
2021/11/29 07:25:42;;;;;;;11.15;1.58;;;;;;;2.32;100.00;100845.09;5027931;28;20029;-77
2021/11/29 07:28:08;;;;;;;7.55;2.25;;;;;;;2.23;100.00;100841.16;5030163;28;20029;-77
2021/11/29 07:30:33;;;;;;;8.77;1.95;;;;;;;2.14;100.00;100846.75;5029149;28;20037;-77
2021/11/29 07:32:59;;;;;;;6.63;1.30;;;;;;;2.04;100.00;100847.13;5029377;28;20025;-74
2021/11/29 07:35:28;;;;;;;22.02;2.60;;;;;;;1.94;100.00;100840.56;5029877;28;20057;-75
2021/11/29 07:37:54;;;;;;;14.52;2.78;;;;;;;1.91;100.00;100845.59;5027205;28;20370;-76
2021/11/29 07:40:21;;;;;;;16.45;2.35;;;;;;;2.03;100.00;100848.81;5028696;28;20055;-76
2021/11/29 07:42:47;;;;;;;12.55;1.55;;;;;;;2.18;100.00;100839.22;5030763;28;20030;-76
2021/11/29 07:45:13;;;;;;;14.77;1.90;;;;;;;2.37;100.00;100842.72;5032084;28;20037;-75
2021/11/29 07:47:40;;;;;;;11.63;1.15;;;;;;;2.55;100.00;100845.34;5029501;28;20030;-76
2021/11/29 07:50:11;;;;;;;17.38;1.88;;;;;;;2.68;100.00;100858.09;5024281;28;20497;-76
2021/11/29 07:52:37;;;;;;;14.20;1.55;;;;;;;2.87;100.00;100859.00;5031144;28;20037;-76
2021/11/29 07:55:07;;;;;;;9.25;1.80;;;;;;;3.05;100.00;100858.97;5032354;28;20030;-76
2021/11/29 07:57:34;;;;;;;8.65;1.77;;;;;;;3.19;100.00;100859.66;5027164;28;20045;-76
2021/11/29 08:00:05;;;;;;;11.50;1.40;;;;;;;3.27;100.00;100872.97;5030639;28;20029;-76
2021/11/29 08:02:31;;;;;;;11.27;1.80;;;;;;;3.31;100.00;100877.50;5027963;28;20026;-77
2021/11/29 08:05:00;;;;;;;13.48;1.55;;;;;;;3.37;100.00;100881.28;5031432;28;20100;-76
2021/11/29 08:07:27;;;;;;;6.88;1.17;;;;;;;3.34;100.00;100878.53;5030153;28;20029;-75
2021/11/29 08:09:53;;;;;;;9.45;2.08;;;;;;;3.33;100.00;100886.28;5029753;28;20036;-76
2021/11/29 08:12:19;;;;;;;16.25;2.08;;;;;;;3.30;100.00;100889.63;5034330;28;20025;-77
2021/11/29 08:14:44;;;;;;;20.52;2.13;;;;;;;3.27;100.00;100896.38;5032324;28;20370;-78
2021/11/29 08:17:10;;;;;;;13.23;2.33;;;;;;;3.24;100.00;100897.13;5031704;28;20354;-76
2021/11/29 08:19:36;;;;;;;20.17;1.80;;;;;;;3.22;100.00;100903.97;5034865;28;20038;-77
2021/11/29 08:22:01;;;;;;;12.13;1.85;;;;;;;3.21;100.00;100902.19;5035441;28;20029;-76
2021/11/29 08:24:27;;;;;;;15.50;2.13;;;;;;;3.22;100.00;100898.78;5035834;28;20069;-77
2021/11/29 08:26:52;;;;;;;18.30;3.00;;;;;;;3.20;100.00;100910.81;5038566;28;20113;-77
2021/11/29 08:29:18;;;;;;;18.80;4.03;;;;;;;3.22;100.00;100918.72;5040626;28;20549;-77
2021/11/29 08:31:44;;;;;;;18.27;5.18;;;;;;;3.16;100.00;100919.28;5036149;28;20033;-77
2021/11/29 08:34:10;;;;;;;16.63;4.82;;;;;;;3.14;100.00;100910.53;5040911;28;20370;-77
2021/11/29 08:36:35;;;;;;;17.30;4.35;;;;;;;3.15;100.00;100925.31;5039945;28;20038;-76
2021/11/29 08:39:03;;;;;;;20.48;3.08;;;;;;;3.25;100.00;100909.31;5036343;28;20083;-76
2021/11/29 08:41:30;;;;;;;19.50;2.15;;;;;;;3.35;100.00;100911.53;5035202;28;20072;-76
2021/11/29 08:43:56;;;;;;;16.88;1.75;;;;;;;3.48;100.00;100912.13;5035733;28;20041;-77
2021/11/29 08:46:22;;;;;;;11.80;1.52;;;;;;;3.58;100.00;100916.94;5035069;28;20029;-77
2021/11/29 08:48:49;;;;;;;12.52;1.70;;;;;;;3.68;100.00;100924.31;5036867;28;20029;-76
2021/11/29 08:51:17;;;;;;;8.60;1.30;;;;;;;3.78;100.00;100922.16;5037233;28;20033;-76
2021/11/29 08:53:44;;;;;;;10.20;1.13;;;;;;;3.88;100.00;100929.56;5036021;28;20406;-77
2021/11/29 08:56:09;;;;;;;6.35;1.55;;;;;;;3.91;100.00;100929.69;5035598;28;20040;-77
2021/11/29 08:58:36;;;;;;;9.00;1.45;;;;;;;3.97;100.00;100937.75;5034370;28;20037;-75
2021/11/29 09:01:04;;;;;;;5.95;1.35;;;;;;;3.99;100.00;100943.94;5036940;28;20033;-77
2021/11/29 09:03:31;;;;;;;12.15;1.50;;;;;;;4.00;100.00;100945.72;5031804;28;20036;-75
2021/11/29 09:05:57;;;;;;;11.80;1.67;;;;;;;4.02;100.00;100944.06;5035043;28;20037;-76
2021/11/29 09:08:25;;;;;;;5.63;1.30;;;;;;;4.05;100.00;100944.19;5035479;28;20415;-77
2021/11/29 09:10:51;;;;;;;13.23;1.35;;;;;;;4.16;100.00;100933.38;5034744;28;20068;-77
2021/11/29 09:13:17;;;;;;;5.88;1.45;;;;;;;4.23;100.00;100940.63;5036332;28;20028;-77
2021/11/29 09:15:45;;;;;;;11.80;1.52;;;;;;;4.35;100.00;100943.78;5035213;28;20433;-77
2021/11/29 09:18:12;;;;;;;11.63;2.15;;;;;;;4.44;100.00;100945.88;5030539;28;20033;-76
2021/11/29 09:20:40;;;;;;;14.82;2.00;;;;;;;4.55;99.78;100947.22;5036422;28;20525;-76
2021/11/29 09:23:08;;;;;;;5.75;1.92;;;;;;;4.68;97.97;100947.75;5036904;28;20031;-76
2021/11/29 09:25:40;;;;;;;7.25;1.50;;;;;;;4.85;96.61;100956.28;5036441;28;20041;-76
2021/11/29 09:28:07;;;;;;;5.05;0.90;;;;;;;4.98;96.53;100957.66;5035073;28;20044;-75
2021/11/29 09:30:33;;;;;;;7.85;1.40;;;;;;;5.03;95.85;100959.66;5035840;28;20021;-76
2021/11/29 09:32:58;;;;;;;4.75;0.95;;;;;;;5.07;96.78;100969.38;5034339;28;20024;-75
2021/11/29 09:35:24;;;;;;;5.82;1.17;;;;;;;5.13;96.40;100966.13;5037482;28;20556;-75
2021/11/29 09:37:49;;;;;;;7.43;1.80;;;;;;;5.13;96.73;100962.63;5033699;28;20551;-77
2021/11/29 09:40:22;;;;;;;7.85;1.30;;;;;;;5.12;96.90;100973.91;5033160;28;20044;-75
2021/11/29 09:42:49;;;;;;;15.57;1.80;;;;;;;5.19;97.36;100981.13;5034043;28;20505;-75
2021/11/29 09:45:16;;;;;;;18.58;1.92;;;;;;;5.34;97.25;100993.91;5034294;28;20025;-75
2021/11/29 09:47:42;;;;;;;6.03;0.88;;;;;;;5.49;97.67;100997.13;5033810;28;20037;-76
2021/11/29 09:50:10;;;;;;;4.50;1.15;;;;;;;5.55;96.98;100999.09;5035492;28;20063;-75
2021/11/29 09:52:35;;;;;;;6.82;1.13;;;;;;;5.47;97.00;101000.53;5035022;28;20030;-76
2021/11/29 09:55:04;;;;;;;8.95;1.13;;;;;;;5.40;97.63;100995.06;5037125;28;20017;-76
2021/11/29 09:57:31;;;;;;;6.32;2.00;;;;;;;5.31;98.06;101005.13;5033228;28;20075;-75
2021/11/29 09:59:57;;;;;;;9.77;1.52;;;;;;;5.26;98.54;101006.63;5032704;28;20075;-76
2021/11/29 10:02:22;;;;;;;10.88;1.50;;;;;;;5.24;97.13;101017.00;5035302;28;20033;-76
2021/11/29 10:04:49;;;;;;;12.93;1.52;;;;;;;5.26;96.71;101010.97;5035792;28;20044;-78
2021/11/29 10:07:33;;;;;;;6.93;1.98;;;;;;;5.26;97.94;101011.84;5029976;28;20025;-76
2021/11/29 10:10:28;;;;;;;;;;;;;;;5.24;99.24;101018.75;5034944;28;20029;-77
2021/11/29 10:13:00;;;;;;;10.30;1.40;;;;;;;5.18;99.61;101023.69;5037799;28;19921;-77
2021/11/29 10:15:28;;;;;;;8.15;1.45;;;;;;;5.12;100.00;101023.47;5031381;28;20080;-76
2021/11/29 10:18:15;;;;;;;14.27;1.35;;;;;;;5.07;100.00;101020.66;5032050;28;20139;-77
2021/11/29 10:20:56;;;;;;;9.30;1.42;;;;;;;5.05;100.00;101022.31;5034061;28;20064;-77
2021/11/29 10:23:32;;;;;;;10.30;1.63;;;;;;;5.09;100.00;101016.41;5035376;28;20033;-77
2021/11/29 10:26:01;;;;;;;6.85;1.45;;;;;;;5.21;100.00;101029.06;5033574;28;20087;-77
2021/11/29 10:28:31;;;;;;;7.30;1.20;;;;;;;5.23;100.00;101027.38;5038754;28;20037;-78
2021/11/29 10:31:22;;;;;;;5.40;1.17;;;;;;;5.09;100.00;101047.69;5036108;28;20041;-77
2021/11/29 10:34:14;;;;;;;11.85;1.13;;;;;;;4.94;100.00;101050.53;5037049;28;20021;-77
2021/11/29 10:36:56;;;;;;;2.22;0.60;;;;;;;4.77;100.00;101047.19;5037534;28;20641;-77
2021/11/29 10:39:28;;;;;;;2.10;0.70;;;;;;;4.59;100.00;101062.94;5029957;28;20029;-76
2021/11/29 10:41:56;;;;;;;4.90;1.25;;;;;;;4.47;100.00;101062.38;5040059;28;20032;-79
2021/11/29 10:44:24;;;;;;;5.85;0.77;;;;;;;4.41;100.00;101055.19;5039644;28;20025;-77
2021/11/29 10:46:56;;;;;;;3.95;1.20;;;;;;;4.44;100.00;101051.84;5042526;28;20041;-78
2021/11/29 10:49:27;;;;;;;2.05;0.60;;;;;;;4.52;100.00;101059.16;5034808;28;20363;-78
2021/11/29 10:51:55;;;;;;;5.32;0.55;;;;;;;4.72;100.00;101056.53;5039765;28;20304;-73
2021/11/29 10:54:27;;;;;;;10.75;0.80;;;;;;;4.79;100.00;101052.47;5033593;28;20037;-75
2021/11/29 10:56:56;;;;;;;11.23;0.70;;;;;;;4.81;100.00;101054.31;5033466;28;20508;-75
2021/11/29 10:59:25;;;;;;;4.07;0.80;;;;;;;4.86;100.00;101051.94;5033054;28;20056;-76
2021/11/29 11:01:53;;;;;;;3.85;0.70;;;;;;;4.94;100.00;101047.94;5033427;28;20393;-78
2021/11/29 11:04:28;;;;;;;3.15;0.68;;;;;;;5.07;100.00;101063.28;5035584;28;20477;-76
2021/11/29 11:07:04;;;;;;;6.00;0.85;;;;;;;5.04;100.00;101073.56;5029351;28;20041;-76
2021/11/29 11:09:37;;;;;;;12.00;0.95;;;;;;;4.95;100.00;101075.81;5034017;28;20492;-78
2021/11/29 11:12:11;;;;;;;3.63;0.82;;;;;;;4.72;100.00;101067.88;5032872;28;20037;-76
2021/11/29 11:14:39;;;;;;;4.80;1.00;;;;;;;4.62;100.00;101073.47;5032475;28;20044;-77
2021/11/29 11:17:07;;;;;;;9.48;1.65;;;;;;;4.50;100.00;101083.38;5033237;28;20516;-77
2021/11/29 11:19:37;;;;;;;7.35;0.80;;;;;;;4.42;100.00;101084.72;5034025;28;20025;-78
2021/11/29 11:22:14;;;;;;;5.53;1.05;;;;;;;4.34;100.00;101080.06;5033832;28;20029;-77